sensor_id;sensor_type;location;lat;lon;timestamp;P1;durP1;ratioP1;P2;durP2;ratioP2
63087;SDS011;49173;43.164;27.786;2023-02-04T00:01:05;13.85;;;6.85;;
63087;SDS011;49173;43.164;27.786;2023-02-04T00:03:31;21.17;;;10.98;;
63087;SDS011;49173;43.164;27.786;2023-02-04T00:05:57;27.55;;;11.57;;
63087;SDS011;49173;43.164;27.786;2023-02-04T00:08:23;83.63;;;32.20;;
63087;SDS011;49173;43.164;27.786;2023-02-04T00:10:49;108.85;;;39.08;;
63087;SDS011;49173;43.164;27.786;2023-02-04T00:13:14;52.45;;;21.58;;
63087;SDS011;49173;43.164;27.786;2023-02-04T00:15:40;47.08;;;19.17;;
63087;SDS011;49173;43.164;27.786;2023-02-04T00:18:06;25.55;;;12.30;;
63087;SDS011;49173;43.164;27.786;2023-02-04T00:20:35;39.38;;;15.85;;
63087;SDS011;49173;43.164;27.786;2023-02-04T00:23:00;21.80;;;9.45;;
63087;SDS011;49173;43.164;27.786;2023-02-04T00:25:26;32.50;;;14.70;;
63087;SDS011;49173;43.164;27.786;2023-02-04T00:27:52;23.27;;;11.13;;
63087;SDS011;49173;43.164;27.786;2023-02-04T00:30:18;13.07;;;8.13;;
63087;SDS011;49173;43.164;27.786;2023-02-04T00:32:44;13.18;;;6.88;;
63087;SDS011;49173;43.164;27.786;2023-02-04T00:35:10;14.77;;;7.43;;
63087;SDS011;49173;43.164;27.786;2023-02-04T00:37:35;14.98;;;7.60;;
63087;SDS011;49173;43.164;27.786;2023-02-04T00:40:01;16.30;;;7.60;;
63087;SDS011;49173;43.164;27.786;2023-02-04T00:42:27;12.43;;;7.13;;
63087;SDS011;49173;43.164;27.786;2023-02-04T00:44:53;11.55;;;5.93;;
63087;SDS011;49173;43.164;27.786;2023-02-04T00:47:19;12.13;;;6.35;;
63087;SDS011;49173;43.164;27.786;2023-02-04T00:49:45;12.20;;;7.00;;
63087;SDS011;49173;43.164;27.786;2023-02-04T00:52:10;27.73;;;14.65;;
63087;SDS011;49173;43.164;27.786;2023-02-04T00:54:36;13.65;;;6.45;;
63087;SDS011;49173;43.164;27.786;2023-02-04T00:57:02;6.43;;;4.20;;
63087;SDS011;49173;43.164;27.786;2023-02-04T00:59:28;6.70;;;4.35;;
63087;SDS011;49173;43.164;27.786;2023-02-04T01:01:53;5.82;;;4.03;;
63087;SDS011;49173;43.164;27.786;2023-02-04T01:04:19;6.78;;;4.50;;
63087;SDS011;49173;43.164;27.786;2023-02-04T01:06:45;12.20;;;5.22;;
63087;SDS011;49173;43.164;27.786;2023-02-04T01:09:11;6.75;;;4.32;;
63087;SDS011;49173;43.164;27.786;2023-02-04T01:11:37;7.05;;;5.30;;
63087;SDS011;49173;43.164;27.786;2023-02-04T01:14:02;7.55;;;5.25;;
63087;SDS011;49173;43.164;27.786;2023-02-04T01:16:29;9.18;;;5.78;;
63087;SDS011;49173;43.164;27.786;2023-02-04T01:18:54;7.45;;;5.10;;
63087;SDS011;49173;43.164;27.786;2023-02-04T01:21:23;9.38;;;5.30;;
63087;SDS011;49173;43.164;27.786;2023-02-04T01:23:49;17.48;;;8.80;;
63087;SDS011;49173;43.164;27.786;2023-02-04T01:26:16;15.85;;;8.95;;
63087;SDS011;49173;43.164;27.786;2023-02-04T01:28:42;12.85;;;7.78;;
63087;SDS011;49173;43.164;27.786;2023-02-04T01:31:08;13.23;;;7.93;;
63087;SDS011;49173;43.164;27.786;2023-02-04T01:33:34;35.05;;;16.40;;
63087;SDS011;49173;43.164;27.786;2023-02-04T01:35:59;85.43;;;33.30;;
63087;SDS011;49173;43.164;27.786;2023-02-04T01:38:25;69.63;;;30.00;;
63087;SDS011;49173;43.164;27.786;2023-02-04T01:40:51;55.95;;;23.30;;
63087;SDS011;49173;43.164;27.786;2023-02-04T01:43:17;32.10;;;13.88;;
63087;SDS011;49173;43.164;27.786;2023-02-04T01:48:13;14.68;;;7.82;;
63087;SDS011;49173;43.164;27.786;2023-02-04T01:50:48;12.13;;;7.68;;
63087;SDS011;49173;43.164;27.786;2023-02-04T01:53:23;12.90;;;7.68;;
63087;SDS011;49173;43.164;27.786;2023-02-04T01:55:51;12.30;;;8.40;;
63087;SDS011;49173;43.164;27.786;2023-02-04T01:58:17;23.27;;;13.15;;
63087;SDS011;49173;43.164;27.786;2023-02-04T02:00:43;30.00;;;15.57;;
63087;SDS011;49173;43.164;27.786;2023-02-04T02:03:09;25.05;;;15.48;;
63087;SDS011;49173;43.164;27.786;2023-02-04T02:08:07;19.58;;;13.50;;
63087;SDS011;49173;43.164;27.786;2023-02-04T02:10:36;17.67;;;11.43;;
63087;SDS011;49173;43.164;27.786;2023-02-04T02:13:04;14.55;;;10.15;;
63087;SDS011;49173;43.164;27.786;2023-02-04T02:15:31;20.88;;;12.00;;
63087;SDS011;49173;43.164;27.786;2023-02-04T02:17:57;18.65;;;10.95;;
63087;SDS011;49173;43.164;27.786;2023-02-04T02:20:23;17.63;;;10.43;;
63087;SDS011;49173;43.164;27.786;2023-02-04T02:23:03;17.23;;;10.67;;
63087;SDS011;49173;43.164;27.786;2023-02-04T02:25:48;25.98;;;14.02;;
63087;SDS011;49173;43.164;27.786;2023-02-04T02:28:15;25.58;;;13.40;;
63087;SDS011;49173;43.164;27.786;2023-02-04T02:30:43;20.67;;;10.77;;
63087;SDS011;49173;43.164;27.786;2023-02-04T02:33:11;16.20;;;10.15;;
63087;SDS011;49173;43.164;27.786;2023-02-04T02:35:39;16.10;;;10.23;;
63087;SDS011;49173;43.164;27.786;2023-02-04T02:38:08;17.00;;;10.25;;
63087;SDS011;49173;43.164;27.786;2023-02-04T02:40:36;16.60;;;9.93;;
63087;SDS011;49173;43.164;27.786;2023-02-04T02:43:03;12.10;;;7.97;;
63087;SDS011;49173;43.164;27.786;2023-02-04T02:45:30;12.70;;;6.47;;
63087;SDS011;49173;43.164;27.786;2023-02-04T02:47:58;11.93;;;7.28;;
63087;SDS011;49173;43.164;27.786;2023-02-04T02:50:28;9.50;;;5.97;;
63087;SDS011;49173;43.164;27.786;2023-02-04T02:52:55;10.55;;;6.95;;
63087;SDS011;49173;43.164;27.786;2023-02-04T02:55:23;12.05;;;6.78;;
63087;SDS011;49173;43.164;27.786;2023-02-04T02:57:51;8.73;;;5.28;;
63087;SDS011;49173;43.164;27.786;2023-02-04T03:00:21;12.05;;;6.22;;
63087;SDS011;49173;43.164;27.786;2023-02-04T03:02:54;13.68;;;7.45;;
63087;SDS011;49173;43.164;27.786;2023-02-04T03:05:24;15.40;;;7.43;;
63087;SDS011;49173;43.164;27.786;2023-02-04T03:07:52;9.57;;;5.47;;
63087;SDS011;49173;43.164;27.786;2023-02-04T03:10:19;7.65;;;4.53;;
63087;SDS011;49173;43.164;27.786;2023-02-04T03:12:45;8.40;;;4.75;;
63087;SDS011;49173;43.164;27.786;2023-02-04T03:15:12;5.78;;;4.38;;
63087;SDS011;49173;43.164;27.786;2023-02-04T03:17:39;7.10;;;4.75;;
63087;SDS011;49173;43.164;27.786;2023-02-04T03:20:06;6.88;;;4.00;;
63087;SDS011;49173;43.164;27.786;2023-02-04T03:22:34;8.25;;;4.18;;
63087;SDS011;49173;43.164;27.786;2023-02-04T03:25:00;7.38;;;4.10;;
63087;SDS011;49173;43.164;27.786;2023-02-04T03:27:26;5.75;;;3.88;;
63087;SDS011;49173;43.164;27.786;2023-02-04T03:29:53;7.47;;;4.50;;
63087;SDS011;49173;43.164;27.786;2023-02-04T03:32:19;7.10;;;4.70;;
63087;SDS011;49173;43.164;27.786;2023-02-04T03:34:44;8.85;;;5.10;;
63087;SDS011;49173;43.164;27.786;2023-02-04T03:37:11;10.10;;;6.20;;
63087;SDS011;49173;43.164;27.786;2023-02-04T03:39:37;9.18;;;5.90;;
63087;SDS011;49173;43.164;27.786;2023-02-04T03:42:02;9.27;;;5.63;;
63087;SDS011;49173;43.164;27.786;2023-02-04T03:44:28;8.82;;;5.85;;
63087;SDS011;49173;43.164;27.786;2023-02-04T03:46:54;7.03;;;5.20;;
63087;SDS011;49173;43.164;27.786;2023-02-04T03:49:21;7.95;;;5.35;;
63087;SDS011;49173;43.164;27.786;2023-02-04T03:51:47;9.43;;;5.90;;
63087;SDS011;49173;43.164;27.786;2023-02-04T03:54:13;7.10;;;5.95;;
63087;SDS011;49173;43.164;27.786;2023-02-04T03:56:39;8.98;;;6.63;;
63087;SDS011;49173;43.164;27.786;2023-02-04T03:59:05;14.20;;;9.50;;
63087;SDS011;49173;43.164;27.786;2023-02-04T04:01:31;11.00;;;7.30;;
63087;SDS011;49173;43.164;27.786;2023-02-04T04:03:57;7.75;;;5.72;;
63087;SDS011;49173;43.164;27.786;2023-02-04T04:06:23;7.60;;;5.65;;
63087;SDS011;49173;43.164;27.786;2023-02-04T04:08:49;8.38;;;6.13;;
63087;SDS011;49173;43.164;27.786;2023-02-04T04:11:15;50.60;;;24.33;;
63087;SDS011;49173;43.164;27.786;2023-02-04T04:13:41;35.45;;;17.60;;
63087;SDS011;49173;43.164;27.786;2023-02-04T04:16:07;25.75;;;13.85;;
63087;SDS011;49173;43.164;27.786;2023-02-04T04:18:33;35.33;;;16.95;;
63087;SDS011;49173;43.164;27.786;2023-02-04T04:21:00;19.58;;;10.98;;
63087;SDS011;49173;43.164;27.786;2023-02-04T04:23:26;19.70;;;10.40;;
63087;SDS011;49173;43.164;27.786;2023-02-04T04:25:52;21.08;;;10.25;;
63087;SDS011;49173;43.164;27.786;2023-02-04T04:28:17;22.85;;;11.88;;
63087;SDS011;49173;43.164;27.786;2023-02-04T04:30:43;39.30;;;20.35;;
63087;SDS011;49173;43.164;27.786;2023-02-04T04:33:09;24.98;;;13.13;;
63087;SDS011;49173;43.164;27.786;2023-02-04T04:35:35;38.60;;;19.10;;
63087;SDS011;49173;43.164;27.786;2023-02-04T04:38:01;19.40;;;10.88;;
63087;SDS011;49173;43.164;27.786;2023-02-04T04:40:30;18.08;;;10.13;;
63087;SDS011;49173;43.164;27.786;2023-02-04T04:42:55;23.00;;;11.88;;
63087;SDS011;49173;43.164;27.786;2023-02-04T04:45:21;15.57;;;7.97;;
63087;SDS011;49173;43.164;27.786;2023-02-04T04:47:47;10.45;;;6.60;;
63087;SDS011;49173;43.164;27.786;2023-02-04T04:50:12;8.70;;;5.43;;
63087;SDS011;49173;43.164;27.786;2023-02-04T04:52:38;8.65;;;5.13;;
63087;SDS011;49173;43.164;27.786;2023-02-04T04:55:04;8.25;;;5.00;;
63087;SDS011;49173;43.164;27.786;2023-02-04T04:57:30;11.75;;;6.07;;
63087;SDS011;49173;43.164;27.786;2023-02-04T04:59:56;11.57;;;6.05;;
63087;SDS011;49173;43.164;27.786;2023-02-04T05:02:22;7.53;;;5.03;;
63087;SDS011;49173;43.164;27.786;2023-02-04T05:04:48;6.50;;;4.55;;
63087;SDS011;49173;43.164;27.786;2023-02-04T05:07:13;11.73;;;5.80;;
63087;SDS011;49173;43.164;27.786;2023-02-04T05:09:39;8.63;;;4.90;;
63087;SDS011;49173;43.164;27.786;2023-02-04T05:12:05;7.72;;;5.22;;
63087;SDS011;49173;43.164;27.786;2023-02-04T05:14:31;7.78;;;4.78;;
63087;SDS011;49173;43.164;27.786;2023-02-04T05:16:57;7.43;;;4.55;;
63087;SDS011;49173;43.164;27.786;2023-02-04T05:19:23;6.90;;;4.47;;
63087;SDS011;49173;43.164;27.786;2023-02-04T05:21:49;6.03;;;4.45;;
63087;SDS011;49173;43.164;27.786;2023-02-04T05:24:15;7.20;;;4.43;;
63087;SDS011;49173;43.164;27.786;2023-02-04T05:26:41;7.88;;;5.25;;
63087;SDS011;49173;43.164;27.786;2023-02-04T05:29:06;9.93;;;5.95;;
63087;SDS011;49173;43.164;27.786;2023-02-04T05:31:32;8.07;;;5.80;;
63087;SDS011;49173;43.164;27.786;2023-02-04T05:33:58;8.35;;;5.82;;
63087;SDS011;49173;43.164;27.786;2023-02-04T05:36:24;10.40;;;6.90;;
63087;SDS011;49173;43.164;27.786;2023-02-04T05:38:50;11.43;;;7.35;;
63087;SDS011;49173;43.164;27.786;2023-02-04T05:41:16;16.05;;;8.20;;
63087;SDS011;49173;43.164;27.786;2023-02-04T05:43:42;12.57;;;7.72;;
63087;SDS011;49173;43.164;27.786;2023-02-04T05:46:08;16.40;;;7.78;;
63087;SDS011;49173;43.164;27.786;2023-02-04T05:48:34;9.23;;;6.85;;
63087;SDS011;49173;43.164;27.786;2023-02-04T05:51:00;12.35;;;7.78;;
63087;SDS011;49173;43.164;27.786;2023-02-04T05:53:26;13.65;;;7.95;;
63087;SDS011;49173;43.164;27.786;2023-02-04T05:55:52;10.98;;;8.20;;
63087;SDS011;49173;43.164;27.786;2023-02-04T05:58:17;11.23;;;8.60;;
63087;SDS011;49173;43.164;27.786;2023-02-04T06:00:43;9.50;;;7.00;;
63087;SDS011;49173;43.164;27.786;2023-02-04T06:03:09;10.27;;;6.78;;
63087;SDS011;49173;43.164;27.786;2023-02-04T06:05:35;8.63;;;6.15;;
63087;SDS011;49173;43.164;27.786;2023-02-04T06:08:01;9.88;;;6.32;;
63087;SDS011;49173;43.164;27.786;2023-02-04T06:10:26;7.85;;;5.75;;
63087;SDS011;49173;43.164;27.786;2023-02-04T06:12:52;10.88;;;6.78;;
63087;SDS011;49173;43.164;27.786;2023-02-04T06:15:18;10.85;;;6.43;;
63087;SDS011;49173;43.164;27.786;2023-02-04T06:17:44;7.30;;;5.60;;
63087;SDS011;49173;43.164;27.786;2023-02-04T06:20:12;9.70;;;6.22;;
63087;SDS011;49173;43.164;27.786;2023-02-04T06:22:39;7.05;;;5.70;;
63087;SDS011;49173;43.164;27.786;2023-02-04T06:25:05;8.73;;;5.18;;
63087;SDS011;49173;43.164;27.786;2023-02-04T06:27:31;13.30;;;9.40;;
63087;SDS011;49173;43.164;27.786;2023-02-04T06:29:57;11.07;;;9.07;;
63087;SDS011;49173;43.164;27.786;2023-02-04T06:32:23;12.18;;;9.77;;
63087;SDS011;49173;43.164;27.786;2023-02-04T06:34:49;11.00;;;8.20;;
63087;SDS011;49173;43.164;27.786;2023-02-04T06:37:14;10.93;;;6.50;;
63087;SDS011;49173;43.164;27.786;2023-02-04T06:39:41;45.50;;;32.58;;
63087;SDS011;49173;43.164;27.786;2023-02-04T06:42:08;36.40;;;24.02;;
63087;SDS011;49173;43.164;27.786;2023-02-04T06:44:34;44.15;;;27.90;;
63087;SDS011;49173;43.164;27.786;2023-02-04T06:46:59;46.78;;;29.02;;
63087;SDS011;49173;43.164;27.786;2023-02-04T06:49:25;29.48;;;18.38;;
63087;SDS011;49173;43.164;27.786;2023-02-04T06:51:51;38.60;;;24.40;;
63087;SDS011;49173;43.164;27.786;2023-02-04T06:54:17;39.35;;;25.23;;
63087;SDS011;49173;43.164;27.786;2023-02-04T06:56:42;34.15;;;20.45;;
63087;SDS011;49173;43.164;27.786;2023-02-04T06:59:09;89.03;;;50.20;;
63087;SDS011;49173;43.164;27.786;2023-02-04T07:01:35;81.68;;;50.10;;
63087;SDS011;49173;43.164;27.786;2023-02-04T07:04:01;60.03;;;37.92;;
63087;SDS011;49173;43.164;27.786;2023-02-04T07:06:26;31.83;;;22.58;;
63087;SDS011;49173;43.164;27.786;2023-02-04T07:08:52;13.65;;;9.25;;
63087;SDS011;49173;43.164;27.786;2023-02-04T07:11:18;15.23;;;11.02;;
63087;SDS011;49173;43.164;27.786;2023-02-04T07:13:44;12.50;;;8.43;;
63087;SDS011;49173;43.164;27.786;2023-02-04T07:16:09;9.75;;;7.85;;
63087;SDS011;49173;43.164;27.786;2023-02-04T07:18:35;23.98;;;12.20;;
63087;SDS011;49173;43.164;27.786;2023-02-04T07:21:01;36.97;;;16.67;;
63087;SDS011;49173;43.164;27.786;2023-02-04T07:23:27;29.10;;;16.67;;
63087;SDS011;49173;43.164;27.786;2023-02-04T07:25:53;20.95;;;13.23;;
63087;SDS011;49173;43.164;27.786;2023-02-04T07:28:21;29.33;;;17.45;;
63087;SDS011;49173;43.164;27.786;2023-02-04T07:30:47;39.10;;;20.60;;
63087;SDS011;49173;43.164;27.786;2023-02-04T07:33:13;23.73;;;15.57;;
63087;SDS011;49173;43.164;27.786;2023-02-04T07:35:39;18.92;;;12.40;;
63087;SDS011;49173;43.164;27.786;2023-02-04T07:38:04;15.73;;;10.85;;
63087;SDS011;49173;43.164;27.786;2023-02-04T07:40:30;15.27;;;9.50;;
63087;SDS011;49173;43.164;27.786;2023-02-04T07:42:57;12.25;;;9.00;;
63087;SDS011;49173;43.164;27.786;2023-02-04T07:45:23;12.88;;;9.63;;
63087;SDS011;49173;43.164;27.786;2023-02-04T07:47:48;13.45;;;9.10;;
63087;SDS011;49173;43.164;27.786;2023-02-04T07:50:14;17.92;;;11.88;;
63087;SDS011;49173;43.164;27.786;2023-02-04T07:52:40;18.65;;;10.82;;
63087;SDS011;49173;43.164;27.786;2023-02-04T07:55:06;20.20;;;12.80;;
63087;SDS011;49173;43.164;27.786;2023-02-04T07:57:34;19.45;;;13.23;;
63087;SDS011;49173;43.164;27.786;2023-02-04T08:00:00;17.50;;;11.90;;
63087;SDS011;49173;43.164;27.786;2023-02-04T08:02:26;13.82;;;10.30;;
63087;SDS011;49173;43.164;27.786;2023-02-04T08:04:52;13.75;;;10.10;;
63087;SDS011;49173;43.164;27.786;2023-02-04T08:07:18;13.93;;;9.48;;
63087;SDS011;49173;43.164;27.786;2023-02-04T08:09:46;13.30;;;9.23;;
63087;SDS011;49173;43.164;27.786;2023-02-04T08:12:12;11.23;;;8.38;;
63087;SDS011;49173;43.164;27.786;2023-02-04T08:14:38;10.88;;;8.55;;
63087;SDS011;49173;43.164;27.786;2023-02-04T08:17:04;16.58;;;10.05;;
63087;SDS011;49173;43.164;27.786;2023-02-04T08:19:30;15.18;;;8.57;;
63087;SDS011;49173;43.164;27.786;2023-02-04T08:21:56;9.27;;;6.95;;
63087;SDS011;49173;43.164;27.786;2023-02-04T08:24:22;8.73;;;7.10;;
63087;SDS011;49173;43.164;27.786;2023-02-04T08:26:48;9.57;;;6.70;;
63087;SDS011;49173;43.164;27.786;2023-02-04T08:29:14;11.70;;;7.38;;
63087;SDS011;49173;43.164;27.786;2023-02-04T08:31:39;8.25;;;5.80;;
63087;SDS011;49173;43.164;27.786;2023-02-04T08:34:05;7.47;;;6.13;;
63087;SDS011;49173;43.164;27.786;2023-02-04T08:36:31;8.07;;;5.70;;
63087;SDS011;49173;43.164;27.786;2023-02-04T08:38:57;7.20;;;5.88;;
63087;SDS011;49173;43.164;27.786;2023-02-04T08:41:23;10.27;;;7.18;;
63087;SDS011;49173;43.164;27.786;2023-02-04T08:44:07;9.98;;;6.78;;
63087;SDS011;49173;43.164;27.786;2023-02-04T08:46:33;7.97;;;7.05;;
63087;SDS011;49173;43.164;27.786;2023-02-04T08:48:59;9.23;;;5.82;;
63087;SDS011;49173;43.164;27.786;2023-02-04T08:51:26;7.70;;;5.50;;
63087;SDS011;49173;43.164;27.786;2023-02-04T08:53:52;7.30;;;5.82;;
63087;SDS011;49173;43.164;27.786;2023-02-04T08:56:18;10.77;;;6.72;;
63087;SDS011;49173;43.164;27.786;2023-02-04T08:58:44;11.48;;;7.68;;
63087;SDS011;49173;43.164;27.786;2023-02-04T09:01:12;11.93;;;9.63;;
63087;SDS011;49173;43.164;27.786;2023-02-04T09:03:41;12.10;;;9.48;;
63087;SDS011;49173;43.164;27.786;2023-02-04T09:06:25;10.80;;;8.55;;
63087;SDS011;49173;43.164;27.786;2023-02-04T09:08:51;8.43;;;7.25;;
63087;SDS011;49173;43.164;27.786;2023-02-04T09:11:17;9.85;;;8.85;;
63087;SDS011;49173;43.164;27.786;2023-02-04T09:13:42;12.05;;;10.10;;
63087;SDS011;49173;43.164;27.786;2023-02-04T09:16:08;14.35;;;11.82;;
63087;SDS011;49173;43.164;27.786;2023-02-04T09:18:35;17.42;;;10.75;;
63087;SDS011;49173;43.164;27.786;2023-02-04T09:21:01;43.83;;;15.93;;
63087;SDS011;49173;43.164;27.786;2023-02-04T09:23:27;21.45;;;13.15;;
63087;SDS011;49173;43.164;27.786;2023-02-04T09:25:53;13.02;;;10.05;;
63087;SDS011;49173;43.164;27.786;2023-02-04T09:28:19;14.30;;;9.30;;
63087;SDS011;49173;43.164;27.786;2023-02-04T09:30:45;8.73;;;6.82;;
63087;SDS011;49173;43.164;27.786;2023-02-04T09:33:12;10.27;;;8.32;;
63087;SDS011;49173;43.164;27.786;2023-02-04T09:35:39;9.63;;;7.30;;
63087;SDS011;49173;43.164;27.786;2023-02-04T09:38:05;7.47;;;6.10;;
63087;SDS011;49173;43.164;27.786;2023-02-04T09:40:32;7.35;;;6.25;;
63087;SDS011;49173;43.164;27.786;2023-02-04T09:43:02;8.90;;;6.47;;
63087;SDS011;49173;43.164;27.786;2023-02-04T09:45:31;9.02;;;6.63;;
63087;SDS011;49173;43.164;27.786;2023-02-04T09:48:00;12.05;;;8.65;;
63087;SDS011;49173;43.164;27.786;2023-02-04T09:50:28;15.50;;;10.32;;
63087;SDS011;49173;43.164;27.786;2023-02-04T09:52:59;15.32;;;8.68;;
63087;SDS011;49173;43.164;27.786;2023-02-04T09:55:30;12.85;;;9.48;;
63087;SDS011;49173;43.164;27.786;2023-02-04T09:57:59;15.38;;;10.60;;
63087;SDS011;49173;43.164;27.786;2023-02-04T10:00:26;19.13;;;11.25;;
63087;SDS011;49173;43.164;27.786;2023-02-04T10:02:55;14.10;;;9.60;;
63087;SDS011;49173;43.164;27.786;2023-02-04T10:05:27;10.45;;;7.60;;
63087;SDS011;49173;43.164;27.786;2023-02-04T10:07:57;17.58;;;10.82;;
63087;SDS011;49173;43.164;27.786;2023-02-04T10:10:23;14.13;;;9.90;;
63087;SDS011;49173;43.164;27.786;2023-02-04T10:12:52;12.45;;;8.00;;
63087;SDS011;49173;43.164;27.786;2023-02-04T10:15:21;18.55;;;11.77;;
63087;SDS011;49173;43.164;27.786;2023-02-04T10:17:47;25.20;;;15.48;;
63087;SDS011;49173;43.164;27.786;2023-02-04T10:20:18;26.80;;;16.85;;
63087;SDS011;49173;43.164;27.786;2023-02-04T10:22:46;22.90;;;14.70;;
63087;SDS011;49173;43.164;27.786;2023-02-04T10:25:14;25.40;;;15.93;;
63087;SDS011;49173;43.164;27.786;2023-02-04T10:27:51;19.92;;;12.23;;
63087;SDS011;49173;43.164;27.786;2023-02-04T10:30:21;13.45;;;8.43;;
63087;SDS011;49173;43.164;27.786;2023-02-04T10:32:51;12.57;;;8.50;;
63087;SDS011;49173;43.164;27.786;2023-02-04T10:35:18;9.07;;;6.70;;
63087;SDS011;49173;43.164;27.786;2023-02-04T10:37:46;10.88;;;7.07;;
63087;SDS011;49173;43.164;27.786;2023-02-04T10:40:33;16.65;;;8.68;;
63087;SDS011;49173;43.164;27.786;2023-02-04T10:43:10;16.58;;;8.98;;
63087;SDS011;49173;43.164;27.786;2023-02-04T10:45:42;12.30;;;8.02;;
63087;SDS011;49173;43.164;27.786;2023-02-04T10:48:16;14.90;;;8.35;;
63087;SDS011;49173;43.164;27.786;2023-02-04T10:51:09;14.50;;;8.90;;
63087;SDS011;49173;43.164;27.786;2023-02-04T10:56:22;14.63;;;9.68;;
63087;SDS011;49173;43.164;27.786;2023-02-04T10:58:48;11.05;;;7.18;;
63087;SDS011;49173;43.164;27.786;2023-02-04T11:01:15;13.15;;;8.40;;
63087;SDS011;49173;43.164;27.786;2023-02-04T11:03:41;14.35;;;8.05;;
63087;SDS011;49173;43.164;27.786;2023-02-04T11:06:12;18.42;;;8.88;;
63087;SDS011;49173;43.164;27.786;2023-02-04T11:08:42;11.02;;;7.63;;
63087;SDS011;49173;43.164;27.786;2023-02-04T11:11:15;9.27;;;5.90;;
63087;SDS011;49173;43.164;27.786;2023-02-04T11:16:25;9.88;;;5.78;;
63087;SDS011;49173;43.164;27.786;2023-02-04T11:18:57;8.80;;;5.15;;
63087;SDS011;49173;43.164;27.786;2023-02-04T11:26:41;8.30;;;5.47;;
63087;SDS011;49173;43.164;27.786;2023-02-04T11:39:20;10.23;;;7.18;;
63087;SDS011;49173;43.164;27.786;2023-02-04T11:41:46;8.77;;;5.68;;
63087;SDS011;49173;43.164;27.786;2023-02-04T11:44:13;11.60;;;6.43;;
63087;SDS011;49173;43.164;27.786;2023-02-04T11:46:40;9.73;;;7.25;;
63087;SDS011;49173;43.164;27.786;2023-02-04T11:49:15;13.05;;;9.05;;
63087;SDS011;49173;43.164;27.786;2023-02-04T11:51:44;10.27;;;7.65;;
63087;SDS011;49173;43.164;27.786;2023-02-04T11:54:11;13.57;;;9.05;;
63087;SDS011;49173;43.164;27.786;2023-02-04T11:56:41;13.63;;;8.63;;
63087;SDS011;49173;43.164;27.786;2023-02-04T11:59:08;10.85;;;7.35;;
63087;SDS011;49173;43.164;27.786;2023-02-04T12:01:36;12.88;;;9.18;;
63087;SDS011;49173;43.164;27.786;2023-02-04T12:04:29;11.88;;;9.10;;
63087;SDS011;49173;43.164;27.786;2023-02-04T12:06:56;9.93;;;7.03;;
63087;SDS011;49173;43.164;27.786;2023-02-04T12:09:27;10.25;;;8.13;;
63087;SDS011;49173;43.164;27.786;2023-02-04T12:12:01;10.50;;;8.07;;
63087;SDS011;49173;43.164;27.786;2023-02-04T12:14:35;22.27;;;13.20;;
63087;SDS011;49173;43.164;27.786;2023-02-04T12:17:16;26.58;;;13.98;;
63087;SDS011;49173;43.164;27.786;2023-02-04T12:19:47;33.60;;;17.67;;
63087;SDS011;49173;43.164;27.786;2023-02-04T12:22:17;32.35;;;16.60;;
63087;SDS011;49173;43.164;27.786;2023-02-04T12:24:44;45.22;;;22.80;;
63087;SDS011;49173;43.164;27.786;2023-02-04T12:27:11;32.60;;;18.83;;
63087;SDS011;49173;43.164;27.786;2023-02-04T12:29:38;29.80;;;18.42;;
63087;SDS011;49173;43.164;27.786;2023-02-04T12:32:06;28.30;;;17.65;;
63087;SDS011;49173;43.164;27.786;2023-02-04T12:34:32;25.63;;;15.38;;
63087;SDS011;49173;43.164;27.786;2023-02-04T12:37:00;23.83;;;15.68;;
63087;SDS011;49173;43.164;27.786;2023-02-04T12:39:29;23.83;;;16.88;;
63087;SDS011;49173;43.164;27.786;2023-02-04T12:42:01;16.48;;;10.65;;
63087;SDS011;49173;43.164;27.786;2023-02-04T12:44:29;19.33;;;12.35;;
63087;SDS011;49173;43.164;27.786;2023-02-04T12:47:00;22.70;;;13.75;;
63087;SDS011;49173;43.164;27.786;2023-02-04T12:49:26;15.55;;;10.60;;
63087;SDS011;49173;43.164;27.786;2023-02-04T12:51:53;15.38;;;11.23;;
63087;SDS011;49173;43.164;27.786;2023-02-04T12:54:23;17.02;;;11.95;;
63087;SDS011;49173;43.164;27.786;2023-02-04T12:56:53;10.55;;;7.95;;
63087;SDS011;49173;43.164;27.786;2023-02-04T12:59:25;13.13;;;9.43;;
63087;SDS011;49173;43.164;27.786;2023-02-04T13:02:00;16.13;;;10.05;;
63087;SDS011;49173;43.164;27.786;2023-02-04T13:04:31;15.00;;;10.23;;
63087;SDS011;49173;43.164;27.786;2023-02-04T13:06:58;15.93;;;10.85;;
63087;SDS011;49173;43.164;27.786;2023-02-04T13:09:27;13.90;;;7.77;;
63087;SDS011;49173;43.164;27.786;2023-02-04T13:11:58;11.05;;;7.13;;
63087;SDS011;49173;43.164;27.786;2023-02-04T13:14:31;11.40;;;8.00;;
63087;SDS011;49173;43.164;27.786;2023-02-04T13:16:57;11.90;;;7.78;;
63087;SDS011;49173;43.164;27.786;2023-02-04T13:19:24;9.00;;;6.15;;
63087;SDS011;49173;43.164;27.786;2023-02-04T13:21:51;9.15;;;6.25;;
63087;SDS011;49173;43.164;27.786;2023-02-04T13:24:17;10.20;;;6.53;;
63087;SDS011;49173;43.164;27.786;2023-02-04T13:26:43;10.38;;;7.07;;
63087;SDS011;49173;43.164;27.786;2023-02-04T13:29:13;7.28;;;5.43;;
63087;SDS011;49173;43.164;27.786;2023-02-04T13:31:39;8.82;;;6.10;;
63087;SDS011;49173;43.164;27.786;2023-02-04T13:34:09;8.05;;;5.93;;
63087;SDS011;49173;43.164;27.786;2023-02-04T13:36:38;8.37;;;6.47;;
63087;SDS011;49173;43.164;27.786;2023-02-04T13:39:07;10.20;;;6.40;;
63087;SDS011;49173;43.164;27.786;2023-02-04T13:41:40;12.57;;;6.45;;
63087;SDS011;49173;43.164;27.786;2023-02-04T13:44:08;7.32;;;5.10;;
63087;SDS011;49173;43.164;27.786;2023-02-04T13:46:37;9.63;;;6.28;;
63087;SDS011;49173;43.164;27.786;2023-02-04T13:49:11;9.65;;;5.88;;
63087;SDS011;49173;43.164;27.786;2023-02-04T13:51:40;9.45;;;6.45;;
63087;SDS011;49173;43.164;27.786;2023-02-04T13:54:10;9.25;;;6.50;;
63087;SDS011;49173;43.164;27.786;2023-02-04T13:56:39;9.77;;;6.53;;
63087;SDS011;49173;43.164;27.786;2023-02-04T13:59:06;10.55;;;7.25;;
63087;SDS011;49173;43.164;27.786;2023-02-04T14:01:34;11.43;;;7.68;;
63087;SDS011;49173;43.164;27.786;2023-02-04T14:04:03;10.20;;;7.60;;
63087;SDS011;49173;43.164;27.786;2023-02-04T14:06:34;9.40;;;6.57;;
63087;SDS011;49173;43.164;27.786;2023-02-04T14:09:03;8.77;;;5.45;;
63087;SDS011;49173;43.164;27.786;2023-02-04T14:11:29;8.70;;;6.30;;
63087;SDS011;49173;43.164;27.786;2023-02-04T14:13:58;7.38;;;5.78;;
63087;SDS011;49173;43.164;27.786;2023-02-04T14:16:27;7.15;;;5.80;;
63087;SDS011;49173;43.164;27.786;2023-02-04T14:18:53;10.18;;;7.13;;
63087;SDS011;49173;43.164;27.786;2023-02-04T14:21:19;10.38;;;7.65;;
63087;SDS011;49173;43.164;27.786;2023-02-04T14:23:46;8.90;;;7.00;;
63087;SDS011;49173;43.164;27.786;2023-02-04T14:26:12;13.32;;;8.27;;
63087;SDS011;49173;43.164;27.786;2023-02-04T14:28:42;14.65;;;8.75;;
63087;SDS011;49173;43.164;27.786;2023-02-04T14:31:08;10.85;;;8.00;;
63087;SDS011;49173;43.164;27.786;2023-02-04T14:33:35;14.18;;;9.18;;
63087;SDS011;49173;43.164;27.786;2023-02-04T14:36:01;11.80;;;8.73;;
63087;SDS011;49173;43.164;27.786;2023-02-04T14:38:32;11.38;;;8.00;;
63087;SDS011;49173;43.164;27.786;2023-02-04T14:41:01;9.93;;;7.32;;
63087;SDS011;49173;43.164;27.786;2023-02-04T14:43:28;10.43;;;8.05;;
63087;SDS011;49173;43.164;27.786;2023-02-04T14:46:04;11.30;;;8.00;;
63087;SDS011;49173;43.164;27.786;2023-02-04T14:48:31;9.95;;;7.20;;